Crystal Symphony — C6MY5 — position and weather

sailwx.info

Track history (hours):
 
Tides and Currents Weather Stations Pressure Air Temp Water Temp Dewpoint Dewpoint Depression Visibility Wind Speed Wind Dir Waves Ship Positions

Crystal Symphony

Operator: Crystal Cruises

Last reported at 2014-Sep-23 11:33 UTC. Time now 2014-Sep-23 12:25 UTC.
Position N 53°58' E 008°33'.

Length 238 m; draft 8 m.

Type: Ship. MMSI: 309168000.

Date/timePositionNaut miles runAvg speedWind from/ knotsBaromVisibWave heightAir tempDewpointWater temp
2014-Sep-23 11:33N 53°58' E 008°33'6 6.5
2014-Sep-23 10:34N 53°54' E 008°42'6 5.8
2014-Sep-23 09:33N 53°50' E 008°49'6 6.3
2014-Sep-23 08:33N 53°51' E 008°60'9 8.7
2014-Sep-23 07:33N 53°53' E 009°14'10 9.8
2014-Sep-23 06:34N 53°45' E 009°25'1010.1
2014-Sep-23 05:34N 53°37' E 009°34'10 9.7
2014-Sep-23 04:34N 53°33' E 009°50'5 5.5
2014-Sep-23 03:34N 53°32' E 009°59'0 0.2
2014-Sep-23 02:34N 53°33' E 009°58'0 0.4
2014-Sep-23 01:29N 53°32' E 009°58'0 0.0
2014-Sep-23 00:29N 53°32' E 009°58'0 0.0
2014-Sep-22 23:32N 53°32' E 009°58'0 0.0
2014-Sep-22 22:25N 53°32' E 009°58'0 0.0
2014-Sep-22 21:30N 53°32' E 009°58'0 0.0
2014-Sep-22 20:30N 53°32' E 009°58'0 0.0
2014-Sep-22 19:33N 53°32' E 009°58'0 0.0
2014-Sep-22 18:32N 53°32' E 009°58'0 0.0
2014-Sep-22 17:32N 53°32' E 009°58'0 0.0
2014-Sep-22 16:29N 53°32' E 009°58'0 0.0
2014-Sep-22 15:31N 53°32' E 009°58'0 0.0
2014-Sep-22 14:31N 53°32' E 009°58'0 0.0
2014-Sep-22 13:33N 53°32' E 009°58'0 0.0
2014-Sep-22 12:33N 53°32' E 009°58'0 0.0
2014-Sep-22 11:32N 53°32' E 009°58'0 0.0
2014-Sep-22 10:32N 53°32' E 009°58'0 0.0
2014-Sep-22 09:32N 53°32' E 009°58'0 0.0
2014-Sep-22 08:31N 53°32' E 009°58'0 0.0
2014-Sep-22 07:31N 53°32' E 009°58'0 0.0
2014-Sep-22 06:30N 53°32' E 009°58'0 0.0
2014-Sep-22 05:33N 53°32' E 009°58'0 0.0
2014-Sep-22 04:32N 53°32' E 009°58'0 0.0
2014-Sep-22 03:32N 53°32' E 009°58'0 0.0
2014-Sep-22 02:32N 53°32' E 009°58'0 0.0
2014-Sep-22 01:32N 53°32' E 009°58'0 0.0
2014-Sep-22 00:31N 53°32' E 009°58'0 0.0
2014-Sep-21 23:33N 53°32' E 009°58'0 0.0
2014-Sep-21 22:33N 53°32' E 009°58'0 0.0
2014-Sep-21 21:33N 53°32' E 009°58'0 0.0
2014-Sep-21 20:32N 53°32' E 009°58'0 0.0
2014-Sep-21 19:32N 53°32' E 009°58'0 0.0
2014-Sep-21 18:31N 53°32' E 009°58'0 0.0
2014-Sep-21 17:31N 53°32' E 009°58'0 0.0
2014-Sep-21 16:33N 53°32' E 009°58'0 0.0
2014-Sep-21 15:33N 53°32' E 009°58'0 0.0
2014-Sep-21 14:26N 53°32' E 009°58'0 0.0
2014-Sep-21 13:33N 53°32' E 009°58'0 0.0
2014-Sep-21 12:33N 53°32' E 009°58'0 0.0
2014-Sep-21 11:33N 53°32' E 009°58'0 0.0
2014-Sep-21 10:33N 53°32' E 009°58'0 0.0
2014-Sep-21 09:32N 53°32' E 009°58'0 0.0
2014-Sep-21 08:32N 53°32' E 009°58'0 0.0
2014-Sep-21 07:31N 53°32' E 009°58'0 0.0
2014-Sep-21 06:31N 53°32' E 009°58'0 0.0
2014-Sep-21 05:33N 53°32' E 009°58'0 0.0
2014-Sep-21 04:30N 53°32' E 009°58'0 0.0
2014-Sep-21 03:30N 53°32' E 009°58'0 0.0
2014-Sep-21 02:32N 53°32' E 009°58'0 0.0
2014-Sep-21 01:32N 53°32' E 009°58'0 0.0
2014-Sep-21 00:31N 53°32' E 009°58'0 0.0
2014-Sep-20 23:31N 53°32' E 009°58'0 0.0
2014-Sep-20 22:33N 53°32' E 009°58'0 0.0
2014-Sep-20 21:27N 53°32' E 009°58'0 0.0
2014-Sep-20 20:33N 53°32' E 009°58'0 0.0
2014-Sep-20 19:32N 53°32' E 009°58'0 0.0
2014-Sep-20 18:32N 53°32' E 009°58'0 0.0
2014-Sep-20 17:31N 53°32' E 009°58'0 0.0
2014-Sep-20 16:28N 53°32' E 009°58'0 0.0
2014-Sep-20 15:30N 53°32' E 009°58'0 0.0
2014-Sep-20 14:30N 53°32' E 009°58'0 0.0
2014-Sep-20 13:32N 53°32' E 009°58'0 0.0
2014-Sep-20 12:32N 53°32' E 009°58'0 0.0
2014-Sep-20 11:31N 53°32' E 009°58'0 0.0
2014-Sep-20 10:31N 53°32' E 009°58'0 0.0
2014-Sep-20 09:31N 53°32' E 009°58'0 0.0
2014-Sep-20 08:33N 53°32' E 009°58'0 0.0
2014-Sep-20 07:33N 53°32' E 009°58'0 0.0
2014-Sep-20 06:32N 53°32' E 009°58'0 0.0
2014-Sep-20 05:32N 53°32' E 009°58'0 0.0
2014-Sep-20 04:22N 53°32' E 009°58'0 0.0
2014-Sep-20 03:31N 53°32' E 009°58'0 0.0
2014-Sep-20 02:25N 53°32' E 009°58'0 0.0
2014-Sep-20 01:30N 53°32' E 009°58'0 0.0
2014-Sep-20 00:33N 53°32' E 009°58'0 0.0
2014-Sep-19 23:32N 53°32' E 009°58'0 0.0
2014-Sep-19 22:32N 53°32' E 009°58'0 0.0
2014-Sep-19 21:32N 53°32' E 009°58'0 0.0
2014-Sep-19 20:31N 53°32' E 009°58'0 0.0
2014-Sep-19 19:31N 53°32' E 009°58'0 0.0
2014-Sep-19 18:33N 53°32' E 009°58'0 0.0
2014-Sep-19 17:33N 53°32' E 009°58'0 0.0
2014-Sep-19 16:32N 53°32' E 009°58'0 0.0
2014-Sep-19 15:32N 53°32' E 009°58'0 0.0
2014-Sep-19 14:32N 53°32' E 009°58'0 0.0
2014-Sep-19 13:31N 53°32' E 009°58'0 0.0
2014-Sep-19 12:31N 53°32' E 009°58'0 0.0
2014-Sep-19 11:33N 53°32' E 009°58'0 0.0
2014-Sep-19 10:33N 53°32' E 009°58'0 0.0
2014-Sep-19 09:32N 53°32' E 009°58'0 0.0
2014-Sep-19 08:32N 53°32' E 009°58'0 0.0
2014-Sep-19 07:22N 53°32' E 009°58'0 0.0
2014-Sep-19 06:31N 53°32' E 009°58'0 0.0
2014-Sep-19 05:31N 53°32' E 009°58'0 0.0
2014-Sep-19 04:33N 53°32' E 009°58'0 0.0
2014-Sep-19 03:33N 53°32' E 009°58'0 0.0
2014-Sep-19 02:32N 53°32' E 009°58'0 0.0
2014-Sep-19 01:29N 53°32' E 009°58'0 0.0
2014-Sep-19 00:32N 53°32' E 009°58'0 0.0
2014-Sep-18 23:31N 53°32' E 009°58'0 0.0
2014-Sep-18 22:31N 53°32' E 009°58'0 0.0
2014-Sep-18 21:33N 53°32' E 009°58'0 0.0
2014-Sep-18 20:33N 53°32' E 009°58'0 0.0
2014-Sep-18 19:32N 53°32' E 009°58'0 0.0
2014-Sep-18 18:32N 53°32' E 009°58'0 0.0
2014-Sep-18 17:32N 53°32' E 009°58'0 0.0
2014-Sep-18 16:31N 53°32' E 009°58'0 0.0
2014-Sep-18 15:31N 53°32' E 009°58'0 0.0
2014-Sep-18 14:30N 53°32' E 009°58'0 0.0
2014-Sep-18 13:33N 53°32' E 009°58'0 0.0
2014-Sep-18 12:32N 53°32' E 009°58'0 0.0
2014-Sep-18 11:32N 53°32' E 009°58'0 0.0
2014-Sep-18 10:32N 53°32' E 009°58'0 0.0
2014-Sep-18 09:31N 53°32' E 009°58'0 0.0
2014-Sep-18 08:31N 53°32' E 009°58'0 0.0
2014-Sep-18 07:33N 53°32' E 009°58'0 0.0
2014-Sep-18 06:33N 53°32' E 009°58'0 0.0
2014-Sep-18 05:32N 53°32' E 009°58'0 0.0
2014-Sep-18 04:29N 53°32' E 009°58'0 0.0
2014-Sep-18 03:32N 53°32' E 009°58'0 0.0
2014-Sep-18 02:31N 53°32' E 009°58'0 0.0
2014-Sep-18 01:31N 53°32' E 009°58'0 0.0
2014-Sep-18 00:33N 53°32' E 009°58'0 0.0
2014-Sep-17 23:33N 53°32' E 009°58'0 0.0
2014-Sep-17 22:29N 53°32' E 009°58'0 0.0
2014-Sep-17 21:32N 53°32' E 009°58'0 0.0
2014-Sep-17 20:32N 53°32' E 009°58'0 0.0
2014-Sep-17 19:31N 53°32' E 009°58'0 0.0
2014-Sep-17 18:31N 53°32' E 009°58'0 0.0
2014-Sep-17 17:33N 53°32' E 009°58'0 0.0
2014-Sep-17 16:33N 53°32' E 009°58'0 0.0
2014-Sep-17 15:32N 53°32' E 009°58'0 0.0
2014-Sep-17 14:32N 53°32' E 009°58'0 0.0
2014-Sep-17 13:32N 53°32' E 009°58'0 0.0
2014-Sep-17 12:31N 53°32' E 009°58'0 0.0
2014-Sep-17 11:34N 53°32' E 009°58'0 0.0
2014-Sep-17 10:30N 53°32' E 009°58'0 0.0
2014-Sep-17 09:30N 53°32' E 009°58'0 0.0
2014-Sep-17 08:32N 53°32' E 009°58'0 0.0
2014-Sep-17 07:32N 53°32' E 009°58'0 0.0
2014-Sep-17 06:32N 53°32' E 009°58'0 0.0
2014-Sep-17 05:30N 53°32' E 009°58'0 0.0
2014-Sep-17 04:32N 53°32' E 009°58'0 0.0
2014-Sep-17 03:29N 53°32' E 009°58'0 0.0
2014-Sep-17 02:32N 53°32' E 009°58'0 0.0
2014-Sep-17 01:31N 53°32' E 009°58'0 0.0
2014-Sep-17 00:31N 53°32' E 009°58'0 0.0
2014-Sep-16 23:30N 53°32' E 009°58'0 0.0
2014-Sep-16 22:30N 53°32' E 009°58'0 0.0
2014-Sep-16 21:32N 53°32' E 009°58'0 0.0
2014-Sep-16 20:29N 53°32' E 009°58'0 0.0
2014-Sep-16 19:32N 53°32' E 009°58'0 0.0
2014-Sep-16 18:32N 53°32' E 009°58'0 0.0
2014-Sep-16 17:31N 53°32' E 009°58'0 0.0
2014-Sep-16 16:33N 53°32' E 009°58'0 0.0
2014-Sep-16 15:34N 53°32' E 009°58'0 0.0
2014-Sep-16 14:33N 53°32' E 009°58'0 0.0
2014-Sep-16 13:30N 53°32' E 009°58'0 0.0
2014-Sep-16 12:32N 53°32' E 009°58'0 0.0
2014-Sep-16 11:29N 53°32' E 009°58'0 0.0
2014-Sep-16 10:32N 53°32' E 009°58'0 0.0
2014-Sep-16 09:32N 53°32' E 009°58'0 0.0
2014-Sep-16 08:31N 53°32' E 009°58'0 0.0
2014-Sep-16 07:33N 53°32' E 009°58'0 0.0
2014-Sep-16 06:33N 53°32' E 009°58'0 0.0
2014-Sep-16 05:32N 53°32' E 009°58'0 0.0
2014-Sep-16 04:32N 53°32' E 009°58'0 0.0
2014-Sep-16 03:32N 53°32' E 009°58'0 0.0
2014-Sep-16 02:32N 53°32' E 009°58'0 0.0
2014-Sep-16 01:31N 53°32' E 009°58'0 0.0
2014-Sep-16 00:33N 53°32' E 009°58'0 0.0
2014-Sep-15 23:33N 53°32' E 009°58'0 0.0
2014-Sep-15 22:32N 53°32' E 009°58'0 0.0
2014-Sep-15 21:32N 53°32' E 009°58'0 0.0
2014-Sep-15 20:33N 53°32' E 009°58'0 0.0
2014-Sep-15 19:31N 53°32' E 009°58'0 0.0
2014-Sep-15 18:31N 53°32' E 009°58'0 0.0
2014-Sep-15 17:33N 53°32' E 009°58'0 0.0
2014-Sep-15 16:33N 53°32' E 009°58'0 0.0
2014-Sep-15 15:32N 53°32' E 009°58'0 0.0
2014-Sep-15 14:32N 53°32' E 009°58'0 0.0
2014-Sep-15 13:33N 53°32' E 009°58'0 0.0
2014-Sep-15 12:33N 53°32' E 009°58'0 0.0
2014-Sep-15 11:33N 53°32' E 009°58'0 0.0
2014-Sep-15 10:33N 53°32' E 009°58'0 0.0
2014-Sep-15 09:33N 53°32' E 009°58'0 0.0
2014-Sep-15 08:33N 53°32' E 009°58'0 0.0
2014-Sep-15 07:33N 53°32' E 009°58'0 0.0
2014-Sep-15 06:33N 53°32' E 009°58'0 0.0
2014-Sep-15 05:33N 53°32' E 009°58'0 0.0
2014-Sep-15 04:33N 53°32' E 009°58'0 0.0
2014-Sep-15 03:33N 53°32' E 009°58'0 0.0
2014-Sep-15 02:33N 53°32' E 009°58'0 0.0
2014-Sep-15 01:33N 53°32' E 009°58'0 0.0
2014-Sep-15 00:33N 53°32' E 009°58'0 0.0
2014-Sep-14 23:28N 53°32' E 009°58'0 0.0
2014-Sep-14 22:33N 53°32' E 009°58'0 0.0
2014-Sep-14 21:34N 53°32' E 009°58'0 0.0
2014-Sep-14 20:34N 53°32' E 009°58'0 0.0
2014-Sep-14 19:33N 53°32' E 009°58'0 0.0
2014-Sep-14 18:34N 53°32' E 009°58'0 0.0
2014-Sep-14 17:33N 53°32' E 009°58'0 0.0
2014-Sep-14 16:34N 53°32' E 009°58'0 0.0
2014-Sep-14 15:34N 53°32' E 009°58'0 0.0
2014-Sep-14 14:34N 53°32' E 009°58'0 0.0
2014-Sep-14 13:33N 53°32' E 009°58'0 0.0
2014-Sep-14 12:34N 53°32' E 009°58'0 0.0
2014-Sep-14 11:34N 53°32' E 009°58'0 0.0
2014-Sep-14 10:32N 53°32' E 009°58'0 0.0
2014-Sep-14 09:26N 53°32' E 009°58'0 0.0
2014-Sep-14 08:32N 53°32' E 009°58'0 0.0
2014-Sep-14 07:31N 53°32' E 009°58'0 0.0
2014-Sep-14 06:31N 53°32' E 009°58'0 0.0
2014-Sep-14 05:33N 53°32' E 009°58'0 0.0
2014-Sep-14 04:33N 53°32' E 009°58'0 0.0
2014-Sep-14 03:32N 53°32' E 009°58'0 0.0
2014-Sep-14 02:29N 53°32' E 009°58'0 0.0
2014-Sep-14 01:32N 53°32' E 009°58'0 0.0
2014-Sep-13 21:33N 53°32' E 009°58'0 0.0
2014-Sep-13 20:32N 53°32' E 009°58'0 0.0
2014-Sep-13 19:32N 53°32' E 009°58'0 0.0
2014-Sep-13 18:32N 53°32' E 009°58'0 0.0
2014-Sep-13 17:31N 53°32' E 009°58'0 0.0
2014-Sep-13 16:28N 53°32' E 009°58'0 0.0
2014-Sep-13 15:33N 53°32' E 009°58'0 0.0
2014-Sep-13 14:33N 53°32' E 009°58'0 0.0
2014-Sep-13 13:29N 53°32' E 009°58'0 0.0
2014-Sep-13 12:32N 53°32' E 009°58'  
Track history (hours):
 
Tides and Currents Weather Stations Pressure Air Temp Water Temp Dewpoint Dewpoint Depression Visibility Wind Speed Wind Dir Waves Ship Positions

Crystal Symphony

Operator: Crystal Cruises

Last reported at 2014-Sep-23 11:33 UTC. Time now 2014-Sep-23 12:25 UTC.
Position N 53°58' E 008°33'.

Length 238 m; draft 8 m.

Type: Ship. MMSI: 309168000.

Date/timePositionNaut miles runAvg speedWind from/ knotsBaromVisibWave heightAir tempDewpointWater temp
2014-Sep-23 11:33N 53°58' E 008°33'6 6.5
2014-Sep-23 10:34N 53°54' E 008°42'6 5.8
2014-Sep-23 09:33N 53°50' E 008°49'6 6.3
2014-Sep-23 08:33N 53°51' E 008°60'9 8.7
2014-Sep-23 07:33N 53°53' E 009°14'10 9.8
2014-Sep-23 06:34N 53°45' E 009°25'1010.1
2014-Sep-23 05:34N 53°37' E 009°34'10 9.7
2014-Sep-23 04:34N 53°33' E 009°50'5 5.5
2014-Sep-23 03:34N 53°32' E 009°59'0 0.2
2014-Sep-23 02:34N 53°33' E 009°58'0 0.4
2014-Sep-23 01:29N 53°32' E 009°58'0 0.0
2014-Sep-23 00:29N 53°32' E 009°58'0 0.0
2014-Sep-22 23:32N 53°32' E 009°58'0 0.0
2014-Sep-22 22:25N 53°32' E 009°58'0 0.0
2014-Sep-22 21:30N 53°32' E 009°58'0 0.0
2014-Sep-22 20:30N 53°32' E 009°58'0 0.0
2014-Sep-22 19:33N 53°32' E 009°58'0 0.0
2014-Sep-22 18:32N 53°32' E 009°58'0 0.0
2014-Sep-22 17:32N 53°32' E 009°58'0 0.0
2014-Sep-22 16:29N 53°32' E 009°58'0 0.0
2014-Sep-22 15:31N 53°32' E 009°58'0 0.0
2014-Sep-22 14:31N 53°32' E 009°58'0 0.0
2014-Sep-22 13:33N 53°32' E 009°58'0 0.0
2014-Sep-22 12:33N 53°32' E 009°58'0 0.0
2014-Sep-22 11:32N 53°32' E 009°58'0 0.0
2014-Sep-22 10:32N 53°32' E 009°58'0 0.0
2014-Sep-22 09:32N 53°32' E 009°58'0 0.0
2014-Sep-22 08:31N 53°32' E 009°58'0 0.0
2014-Sep-22 07:31N 53°32' E 009°58'0 0.0
2014-Sep-22 06:30N 53°32' E 009°58'0 0.0
2014-Sep-22 05:33N 53°32' E 009°58'0 0.0
2014-Sep-22 04:32N 53°32' E 009°58'0 0.0
2014-Sep-22 03:32N 53°32' E 009°58'0 0.0
2014-Sep-22 02:32N 53°32' E 009°58'0 0.0
2014-Sep-22 01:32N 53°32' E 009°58'0 0.0
2014-Sep-22 00:31N 53°32' E 009°58'0 0.0
2014-Sep-21 23:33N 53°32' E 009°58'0 0.0
2014-Sep-21 22:33N 53°32' E 009°58'0 0.0
2014-Sep-21 21:33N 53°32' E 009°58'0 0.0
2014-Sep-21 20:32N 53°32' E 009°58'0 0.0
2014-Sep-21 19:32N 53°32' E 009°58'0 0.0
2014-Sep-21 18:31N 53°32' E 009°58'0 0.0
2014-Sep-21 17:31N 53°32' E 009°58'0 0.0
2014-Sep-21 16:33N 53°32' E 009°58'0 0.0
2014-Sep-21 15:33N 53°32' E 009°58'0 0.0
2014-Sep-21 14:26N 53°32' E 009°58'0 0.0
2014-Sep-21 13:33N 53°32' E 009°58'0 0.0
2014-Sep-21 12:33N 53°32' E 009°58'0 0.0
2014-Sep-21 11:33N 53°32' E 009°58'0 0.0
2014-Sep-21 10:33N 53°32' E 009°58'0 0.0
2014-Sep-21 09:32N 53°32' E 009°58'0 0.0
2014-Sep-21 08:32N 53°32' E 009°58'0 0.0
2014-Sep-21 07:31N 53°32' E 009°58'0 0.0
2014-Sep-21 06:31N 53°32' E 009°58'0 0.0
2014-Sep-21 05:33N 53°32' E 009°58'0 0.0
2014-Sep-21 04:30N 53°32' E 009°58'0 0.0
2014-Sep-21 03:30N 53°32' E 009°58'0 0.0
2014-Sep-21 02:32N 53°32' E 009°58'0 0.0
2014-Sep-21 01:32N 53°32' E 009°58'0 0.0
2014-Sep-21 00:31N 53°32' E 009°58'0 0.0
2014-Sep-20 23:31N 53°32' E 009°58'0 0.0
2014-Sep-20 22:33N 53°32' E 009°58'0 0.0
2014-Sep-20 21:27N 53°32' E 009°58'0 0.0
2014-Sep-20 20:33N 53°32' E 009°58'0 0.0
2014-Sep-20 19:32N 53°32' E 009°58'0 0.0
2014-Sep-20 18:32N 53°32' E 009°58'0 0.0
2014-Sep-20 17:31N 53°32' E 009°58'0 0.0
2014-Sep-20 16:28N 53°32' E 009°58'0 0.0
2014-Sep-20 15:30N 53°32' E 009°58'0 0.0
2014-Sep-20 14:30N 53°32' E 009°58'0 0.0
2014-Sep-20 13:32N 53°32' E 009°58'0 0.0
2014-Sep-20 12:32N 53°32' E 009°58'0 0.0
2014-Sep-20 11:31N 53°32' E 009°58'0 0.0
2014-Sep-20 10:31N 53°32' E 009°58'0 0.0
2014-Sep-20 09:31N 53°32' E 009°58'0 0.0
2014-Sep-20 08:33N 53°32' E 009°58'0 0.0
2014-Sep-20 07:33N 53°32' E 009°58'0 0.0
2014-Sep-20 06:32N 53°32' E 009°58'0 0.0
2014-Sep-20 05:32N 53°32' E 009°58'0 0.0
2014-Sep-20 04:22N 53°32' E 009°58'0 0.0
2014-Sep-20 03:31N 53°32' E 009°58'0 0.0
2014-Sep-20 02:25N 53°32' E 009°58'0 0.0
2014-Sep-20 01:30N 53°32' E 009°58'0 0.0
2014-Sep-20 00:33N 53°32' E 009°58'0 0.0
2014-Sep-19 23:32N 53°32' E 009°58'0 0.0
2014-Sep-19 22:32N 53°32' E 009°58'0 0.0
2014-Sep-19 21:32N 53°32' E 009°58'0 0.0
2014-Sep-19 20:31N 53°32' E 009°58'0 0.0
2014-Sep-19 19:31N 53°32' E 009°58'0 0.0
2014-Sep-19 18:33N 53°32' E 009°58'0 0.0
2014-Sep-19 17:33N 53°32' E 009°58'0 0.0
2014-Sep-19 16:32N 53°32' E 009°58'0 0.0
2014-Sep-19 15:32N 53°32' E 009°58'0 0.0
2014-Sep-19 14:32N 53°32' E 009°58'0 0.0
2014-Sep-19 13:31N 53°32' E 009°58'0 0.0
2014-Sep-19 12:31N 53°32' E 009°58'0 0.0
2014-Sep-19 11:33N 53°32' E 009°58'0 0.0
2014-Sep-19 10:33N 53°32' E 009°58'0 0.0
2014-Sep-19 09:32N 53°32' E 009°58'0 0.0
2014-Sep-19 08:32N 53°32' E 009°58'0 0.0
2014-Sep-19 07:22N 53°32' E 009°58'0 0.0
2014-Sep-19 06:31N 53°32' E 009°58'0 0.0
2014-Sep-19 05:31N 53°32' E 009°58'0 0.0
2014-Sep-19 04:33N 53°32' E 009°58'0 0.0
2014-Sep-19 03:33N 53°32' E 009°58'0 0.0
2014-Sep-19 02:32N 53°32' E 009°58'0 0.0
2014-Sep-19 01:29N 53°32' E 009°58'0 0.0
2014-Sep-19 00:32N 53°32' E 009°58'0 0.0
2014-Sep-18 23:31N 53°32' E 009°58'0 0.0
2014-Sep-18 22:31N 53°32' E 009°58'0 0.0
2014-Sep-18 21:33N 53°32' E 009°58'0 0.0
2014-Sep-18 20:33N 53°32' E 009°58'0 0.0
2014-Sep-18 19:32N 53°32' E 009°58'0 0.0
2014-Sep-18 18:32N 53°32' E 009°58'0 0.0
2014-Sep-18 17:32N 53°32' E 009°58'0 0.0
2014-Sep-18 16:31N 53°32' E 009°58'0 0.0
2014-Sep-18 15:31N 53°32' E 009°58'0 0.0
2014-Sep-18 14:30N 53°32' E 009°58'0 0.0
2014-Sep-18 13:33N 53°32' E 009°58'0 0.0
2014-Sep-18 12:32N 53°32' E 009°58'0 0.0
2014-Sep-18 11:32N 53°32' E 009°58'0 0.0
2014-Sep-18 10:32N 53°32' E 009°58'0 0.0
2014-Sep-18 09:31N 53°32' E 009°58'0 0.0
2014-Sep-18 08:31N 53°32' E 009°58'0 0.0
2014-Sep-18 07:33N 53°32' E 009°58'0 0.0
2014-Sep-18 06:33N 53°32' E 009°58'0 0.0
2014-Sep-18 05:32N 53°32' E 009°58'0 0.0
2014-Sep-18 04:29N 53°32' E 009°58'0 0.0
2014-Sep-18 03:32N 53°32' E 009°58'0 0.0
2014-Sep-18 02:31N 53°32' E 009°58'0 0.0
2014-Sep-18 01:31N 53°32' E 009°58'0 0.0
2014-Sep-18 00:33N 53°32' E 009°58'0 0.0
2014-Sep-17 23:33N 53°32' E 009°58'0 0.0
2014-Sep-17 22:29N 53°32' E 009°58'0 0.0
2014-Sep-17 21:32N 53°32' E 009°58'0 0.0
2014-Sep-17 20:32N 53°32' E 009°58'0 0.0
2014-Sep-17 19:31N 53°32' E 009°58'0 0.0
2014-Sep-17 18:31N 53°32' E 009°58'0 0.0
2014-Sep-17 17:33N 53°32' E 009°58'0 0.0
2014-Sep-17 16:33N 53°32' E 009°58'0 0.0
2014-Sep-17 15:32N 53°32' E 009°58'0 0.0
2014-Sep-17 14:32N 53°32' E 009°58'0 0.0
2014-Sep-17 13:32N 53°32' E 009°58'0 0.0
2014-Sep-17 12:31N 53°32' E 009°58'0 0.0
2014-Sep-17 11:34N 53°32' E 009°58'0 0.0
2014-Sep-17 10:30N 53°32' E 009°58'0 0.0
2014-Sep-17 09:30N 53°32' E 009°58'0 0.0
2014-Sep-17 08:32N 53°32' E 009°58'0 0.0
2014-Sep-17 07:32N 53°32' E 009°58'0 0.0
2014-Sep-17 06:32N 53°32' E 009°58'0 0.0
2014-Sep-17 05:30N 53°32' E 009°58'0 0.0
2014-Sep-17 04:32N 53°32' E 009°58'0 0.0
2014-Sep-17 03:29N 53°32' E 009°58'0 0.0
2014-Sep-17 02:32N 53°32' E 009°58'0 0.0
2014-Sep-17 01:31N 53°32' E 009°58'0 0.0
2014-Sep-17 00:31N 53°32' E 009°58'0 0.0
2014-Sep-16 23:30N 53°32' E 009°58'0 0.0
2014-Sep-16 22:30N 53°32' E 009°58'0 0.0
2014-Sep-16 21:32N 53°32' E 009°58'0 0.0
2014-Sep-16 20:29N 53°32' E 009°58'0 0.0
2014-Sep-16 19:32N 53°32' E 009°58'0 0.0
2014-Sep-16 18:32N 53°32' E 009°58'0 0.0
2014-Sep-16 17:31N 53°32' E 009°58'0 0.0
2014-Sep-16 16:33N 53°32' E 009°58'0 0.0
2014-Sep-16 15:34N 53°32' E 009°58'0 0.0
2014-Sep-16 14:33N 53°32' E 009°58'0 0.0
2014-Sep-16 13:30N 53°32' E 009°58'0 0.0
2014-Sep-16 12:32N 53°32' E 009°58'0 0.0
2014-Sep-16 11:29N 53°32' E 009°58'0 0.0
2014-Sep-16 10:32N 53°32' E 009°58'0 0.0
2014-Sep-16 09:32N 53°32' E 009°58'0 0.0
2014-Sep-16 08:31N 53°32' E 009°58'0 0.0
2014-Sep-16 07:33N 53°32' E 009°58'0 0.0
2014-Sep-16 06:33N 53°32' E 009°58'0 0.0
2014-Sep-16 05:32N 53°32' E 009°58'0 0.0
2014-Sep-16 04:32N 53°32' E 009°58'0 0.0
2014-Sep-16 03:32N 53°32' E 009°58'0 0.0
2014-Sep-16 02:32N 53°32' E 009°58'0 0.0
2014-Sep-16 01:31N 53°32' E 009°58'0 0.0
2014-Sep-16 00:33N 53°32' E 009°58'0 0.0
2014-Sep-15 23:33N 53°32' E 009°58'0 0.0
2014-Sep-15 22:32N 53°32' E 009°58'0 0.0
2014-Sep-15 21:32N 53°32' E 009°58'0 0.0
2014-Sep-15 20:33N 53°32' E 009°58'0 0.0
2014-Sep-15 19:31N 53°32' E 009°58'0 0.0
2014-Sep-15 18:31N 53°32' E 009°58'0 0.0
2014-Sep-15 17:33N 53°32' E 009°58'0 0.0
2014-Sep-15 16:33N 53°32' E 009°58'0 0.0
2014-Sep-15 15:32N 53°32' E 009°58'0 0.0
2014-Sep-15 14:32N 53°32' E 009°58'0 0.0
2014-Sep-15 13:33N 53°32' E 009°58'0 0.0
2014-Sep-15 12:33N 53°32' E 009°58'0 0.0
2014-Sep-15 11:33N 53°32' E 009°58'0 0.0
2014-Sep-15 10:33N 53°32' E 009°58'0 0.0
2014-Sep-15 09:33N 53°32' E 009°58'0 0.0
2014-Sep-15 08:33N 53°32' E 009°58'0 0.0
2014-Sep-15 07:33N 53°32' E 009°58'0 0.0
2014-Sep-15 06:33N 53°32' E 009°58'0 0.0
2014-Sep-15 05:33N 53°32' E 009°58'0 0.0
2014-Sep-15 04:33N 53°32' E 009°58'0 0.0
2014-Sep-15 03:33N 53°32' E 009°58'0 0.0
2014-Sep-15 02:33N 53°32' E 009°58'0 0.0
2014-Sep-15 01:33N 53°32' E 009°58'0 0.0
2014-Sep-15 00:33N 53°32' E 009°58'0 0.0
2014-Sep-14 23:28N 53°32' E 009°58'0 0.0
2014-Sep-14 22:33N 53°32' E 009°58'0 0.0
2014-Sep-14 21:34N 53°32' E 009°58'0 0.0
2014-Sep-14 20:34N 53°32' E 009°58'0 0.0
2014-Sep-14 19:33N 53°32' E 009°58'0 0.0
2014-Sep-14 18:34N 53°32' E 009°58'0 0.0
2014-Sep-14 17:33N 53°32' E 009°58'0 0.0
2014-Sep-14 16:34N 53°32' E 009°58'0 0.0
2014-Sep-14 15:34N 53°32' E 009°58'0 0.0
2014-Sep-14 14:34N 53°32' E 009°58'0 0.0
2014-Sep-14 13:33N 53°32' E 009°58'0 0.0
2014-Sep-14 12:34N 53°32' E 009°58'0 0.0
2014-Sep-14 11:34N 53°32' E 009°58'0 0.0
2014-Sep-14 10:32N 53°32' E 009°58'0 0.0
2014-Sep-14 09:26N 53°32' E 009°58'0 0.0
2014-Sep-14 08:32N 53°32' E 009°58'0 0.0
2014-Sep-14 07:31N 53°32' E 009°58'0 0.0
2014-Sep-14 06:31N 53°32' E 009°58'0 0.0
2014-Sep-14 05:33N 53°32' E 009°58'0 0.0
2014-Sep-14 04:33N 53°32' E 009°58'0 0.0
2014-Sep-14 03:32N 53°32' E 009°58'0 0.0
2014-Sep-14 02:29N 53°32' E 009°58'0 0.0
2014-Sep-14 01:32N 53°32' E 009°58'0 0.0
2014-Sep-13 21:33N 53°32' E 009°58'0 0.0
2014-Sep-13 20:32N 53°32' E 009°58'0 0.0
2014-Sep-13 19:32N 53°32' E 009°58'0 0.0
2014-Sep-13 18:32N 53°32' E 009°58'0 0.0
2014-Sep-13 17:31N 53°32' E 009°58'0 0.0
2014-Sep-13 16:28N 53°32' E 009°58'0 0.0
2014-Sep-13 15:33N 53°32' E 009°58'0 0.0
2014-Sep-13 14:33N 53°32' E 009°58'0 0.0
2014-Sep-13 13:29N 53°32' E 009°58'0 0.0
2014-Sep-13 12:32N 53°32' E 009°58'  

Dump ship's entire track history